OIMC  Sarakhs Airport

Add Bookmark

Sarakhs, Iran

Status IATA
Operational CKT
Latitude Longitude
36° 30' 4" N 61° 3' 53" E
36.501202 61.064899
Local (DST + 5) UTC (GMT + 4)
Nov 27, 2014 11:27 Nov 27, 2014 07:57
Sunrise-Sunset Local UTC
Begin Civil Twilight 05:45 02:15
Sunrise 06:13 02:43
Sunset 04:12 12:42
End Civil Twilight 04:40 13:10

Current Weather

METAR Observed MVFR
OIMC 270700Z 00000KT 5000 BR OVC020 02/01 Q1026 Thu, Nov 27, 2014 @ 07:00 UTC
(57 Minutes ago)
Marginal Visual Flight Rules
Wind Visibility Clouds Conditions
Calm 5000 meters
  • Overcast at 2,000' AGL
  • Mist
Temperatures Readings Precipitation
Current Temp 2°C (36°F)
Dewpoint 1°C (34°F)
Humidity 93%
Altimeter 30.3"Hg
Sea Level Pressure 1026mb
Field Elevation 944.88'
None Recorded

Additional weather within a 185.2km radius of OIMC

Map ICAO Location
OIMM 130.8km W (257°)
UTAM 144.5km N (030°)

24 Hour Weather History

Loading
-

24 Hour Weather Graphs

Loading
-

CheckWX.com is intended as a tool to help pilots better visualize weather data. It is not intended as a substitute for an official weather briefing obtained from a Flight Service Station. CheckWX.com does not meet the FAA requirements for an official pre-flight weather briefing. Therefore, it's important that pilots still call and obtain an official FSS pre-flight weather briefing.